createdAt,value
2016-12-04T00:00:08.857Z,-0.3
2016-12-04T00:00:18.852Z,-0.2
2016-12-04T00:00:28.844Z,-0.3
2016-12-04T00:00:38.837Z,-0.3
2016-12-04T00:00:48.830Z,-0.2
2016-12-04T00:00:58.823Z,-0.2
2016-12-04T00:01:08.816Z,-0.2
2016-12-04T00:01:18.810Z,-0.3
2016-12-04T00:01:28.803Z,-0.3
2016-12-04T00:01:38.796Z,-0.2
2016-12-04T00:01:48.788Z,-0.3
2016-12-04T00:01:58.783Z,-0.2
2016-12-04T00:02:08.775Z,-0.2
2016-12-04T00:02:18.768Z,-0.3
2016-12-04T00:02:28.761Z,-0.2
2016-12-04T00:02:38.755Z,-0.2
2016-12-04T00:02:48.748Z,-0.2
2016-12-04T00:02:58.741Z,-0.2
2016-12-04T00:03:08.733Z,-0.2
2016-12-04T00:03:18.726Z,-0.1
2016-12-04T00:03:28.720Z,-0.1
2016-12-04T00:03:38.711Z,-0.2
2016-12-04T00:03:48.706Z,-0.2
2016-12-04T00:03:58.699Z,-0.2
2016-12-04T00:04:08.692Z,-0.2
2016-12-04T00:04:18.685Z,-0.3
2016-12-04T00:04:28.677Z,-0.3
2016-12-04T00:04:38.671Z,-0.3
2016-12-04T00:04:48.664Z,-0.3
2016-12-04T00:04:58.656Z,-0.3
2016-12-04T00:05:08.651Z,-0.2
2016-12-04T00:05:18.643Z,-0.2
2016-12-04T00:05:28.635Z,-0.2
2016-12-04T00:05:38.629Z,-0.3
2016-12-04T00:05:48.621Z,-0.2
2016-12-04T00:05:58.616Z,-0.2
2016-12-04T00:06:08.608Z,-0.3
2016-12-04T00:06:18.601Z,-0.2
2016-12-04T00:06:28.594Z,-0.2
2016-12-04T00:06:38.589Z,-0.3
2016-12-04T00:06:48.581Z,-0.3
2016-12-04T00:06:58.574Z,-0.2
2016-12-04T00:07:08.568Z,-0.2
2016-12-04T00:07:18.562Z,-0.3
2016-12-04T00:07:28.554Z,-0.3
2016-12-04T00:07:38.546Z,-0.2
2016-12-04T00:07:48.541Z,-0.2
2016-12-04T00:07:58.536Z,-0.3
2016-12-04T00:08:08.524Z,-0.2
2016-12-04T00:08:18.520Z,-0.2
2016-12-04T00:08:28.511Z,-0.3
2016-12-04T00:08:38.505Z,-0.4
2016-12-04T00:08:48.498Z,-0.4
2016-12-04T00:08:58.492Z,-0.4
2016-12-04T00:09:08.485Z,-0.3
2016-12-04T00:09:18.479Z,-0.4
2016-12-04T00:09:28.470Z,-0.4
2016-12-04T00:09:38.465Z,-0.3
2016-12-04T00:09:48.456Z,-0.3
2016-12-04T00:09:58.451Z,-0.2
2016-12-04T00:10:08.444Z,-0.2
2016-12-04T00:10:18.436Z,-0.2
2016-12-04T00:10:28.429Z,-0.2
2016-12-04T00:10:38.422Z,-0.2
2016-12-04T00:10:48.415Z,-0.3
2016-12-04T00:10:58.408Z,-0.2
2016-12-04T00:11:08.402Z,-0.2
2016-12-04T00:11:18.394Z,-0.3
2016-12-04T00:11:28.389Z,-0.2
2016-12-04T00:11:38.381Z,-0.3
2016-12-04T00:11:48.373Z,-0.2
2016-12-04T00:11:58.367Z,-0.4
2016-12-04T00:12:08.361Z,-0.3
2016-12-04T00:12:18.352Z,-0.4
2016-12-04T00:12:28.345Z,-0.4
2016-12-04T00:12:38.339Z,-0.4
2016-12-04T00:12:48.332Z,-0.4
2016-12-04T00:12:58.326Z,-0.4
2016-12-04T00:13:08.318Z,-0.5
2016-12-04T00:13:18.311Z,-0.4
2016-12-04T00:13:28.303Z,-0.4
2016-12-04T00:13:38.297Z,-0.4
2016-12-04T00:13:48.290Z,-0.4
2016-12-04T00:13:58.288Z,-0.4
2016-12-04T00:14:08.276Z,-0.4
2016-12-04T00:14:18.269Z,-0.3
2016-12-04T00:14:28.262Z,-0.2
2016-12-04T00:14:38.256Z,-0.3
2016-12-04T00:14:48.248Z,-0.3
2016-12-04T00:14:58.243Z,-0.3
2016-12-04T00:15:08.234Z,-0.3
2016-12-04T00:15:18.227Z,-0.3
2016-12-04T00:15:28.221Z,-0.3
2016-12-04T00:15:38.215Z,-0.4
2016-12-04T00:15:48.208Z,-0.3
2016-12-04T00:15:58.202Z,-0.3
2016-12-04T00:16:08.194Z,-0.3
2016-12-04T00:16:18.186Z,-0.3
2016-12-04T00:16:28.179Z,-0.3
2016-12-04T00:16:38.174Z,-0.2
2016-12-04T00:16:48.165Z,-0.3
2016-12-04T00:16:58.157Z,-0.2
2016-12-04T00:17:08.150Z,-0.2
2016-12-04T00:17:18.143Z,-0.2
2016-12-04T00:17:28.137Z,-0.2
2016-12-04T00:17:38.130Z,-0.2
2016-12-04T00:17:48.123Z,-0.2
2016-12-04T00:17:58.118Z,-0.2
2016-12-04T00:18:08.109Z,-0.4
2016-12-04T00:18:18.104Z,-0.3
2016-12-04T00:18:28.097Z,-0.3
2016-12-04T00:18:38.089Z,-0.4
2016-12-04T00:18:48.083Z,-0.3
2016-12-04T00:18:58.075Z,-0.4
2016-12-04T00:19:08.068Z,-0.2
2016-12-04T00:19:18.061Z,-0.3
2016-12-04T00:19:28.055Z,-0.3
2016-12-04T00:19:38.048Z,-0.3
2016-12-04T00:19:48.044Z,-0.3
2016-12-04T00:19:58.034Z,-0.3
2016-12-04T00:20:08.026Z,-0.4
2016-12-04T00:20:18.020Z,-0.3
2016-12-04T00:20:28.012Z,-0.3
2016-12-04T00:20:38.007Z,-0.3
2016-12-04T00:20:48.000Z,-0.3
2016-12-04T00:20:57.991Z,-0.3
2016-12-04T00:21:07.984Z,-0.2
2016-12-04T00:21:17.978Z,-0.2
2016-12-04T00:21:27.971Z,-0.3
2016-12-04T00:21:37.964Z,-0.3
2016-12-04T00:21:47.955Z,-0.2
2016-12-04T00:21:57.949Z,-0.2
2016-12-04T00:22:07.944Z,-0.2
2016-12-04T00:22:17.936Z,-0.3
2016-12-04T00:22:27.930Z,-0.3
2016-12-04T00:22:37.925Z,-0.3
2016-12-04T00:22:47.915Z,-0.3
2016-12-04T00:22:57.909Z,-0.3
2016-12-04T00:23:07.901Z,-0.4
2016-12-04T00:23:17.896Z,-0.4
2016-12-04T00:23:27.888Z,-0.3
2016-12-04T00:23:37.882Z,-0.3
2016-12-04T00:23:47.874Z,-0.3
2016-12-04T00:23:57.867Z,-0.3
2016-12-04T00:24:07.860Z,-0.2
2016-12-04T00:24:17.853Z,-0.3
2016-12-04T00:24:27.847Z,-0.3
2016-12-04T00:24:37.840Z,-0.3
2016-12-04T00:24:47.834Z,-0.3
2016-12-04T00:24:57.827Z,-0.3
2016-12-04T00:25:07.819Z,-0.3
2016-12-04T00:25:17.812Z,-0.2
2016-12-04T00:25:27.806Z,-0.3
2016-12-04T00:25:37.799Z,-0.3
2016-12-04T00:25:47.790Z,-0.3
2016-12-04T00:25:57.783Z,-0.3
2016-12-04T00:26:07.777Z,-0.3
2016-12-04T00:26:23.907Z,-0.3
2016-12-04T00:26:33.877Z,-0.4
2016-12-04T00:26:43.869Z,-0.3
2016-12-04T00:26:53.865Z,-0.4
2016-12-04T00:27:03.856Z,-0.2
2016-12-04T00:27:13.848Z,-0.3
2016-12-04T00:27:23.844Z,-0.3
2016-12-04T00:27:33.835Z,-0.3
2016-12-04T00:27:43.828Z,-0.2
2016-12-04T00:27:53.821Z,-0.2
2016-12-04T00:28:03.814Z,-0.2
2016-12-04T00:28:13.807Z,-0.3
2016-12-04T00:28:23.800Z,-0.3
2016-12-04T00:28:33.793Z,-0.3
2016-12-04T00:28:43.787Z,-0.3
2016-12-04T00:28:53.780Z,-0.2
2016-12-04T00:29:03.773Z,-0.3
2016-12-04T00:29:13.765Z,-0.3
2016-12-04T00:29:23.756Z,-0.2
2016-12-04T00:29:33.750Z,-0.2
2016-12-04T00:29:43.744Z,-0.2
2016-12-04T00:29:53.737Z,-0.2
2016-12-04T00:30:03.730Z,-0.2
2016-12-04T00:30:13.722Z,-0.3
2016-12-04T00:30:23.716Z,-0.3
2016-12-04T00:30:33.710Z,-0.3
2016-12-04T00:30:43.703Z,-0.2
2016-12-04T00:30:53.696Z,-0.3
2016-12-04T00:31:03.688Z,-0.3
2016-12-04T00:31:13.682Z,-0.2
2016-12-04T00:31:23.676Z,-0.3
2016-12-04T00:31:33.669Z,-0.3
2016-12-04T00:31:43.667Z,-0.4
2016-12-04T00:31:53.656Z,-0.3
2016-12-04T00:32:03.648Z,-0.3
2016-12-04T00:32:13.641Z,-0.3
2016-12-04T00:32:23.633Z,-0.3
2016-12-04T00:32:33.627Z,-0.3
2016-12-04T00:32:43.622Z,-0.2
2016-12-04T00:32:53.614Z,-0.3
2016-12-04T00:33:03.606Z,-0.3
2016-12-04T00:33:13.601Z,-0.3
2016-12-04T00:33:23.592Z,-0.3
2016-12-04T00:33:33.586Z,-0.2
2016-12-04T00:33:43.578Z,-0.3
2016-12-04T00:33:53.573Z,-0.2
2016-12-04T00:34:03.566Z,-0.2
2016-12-04T00:34:13.558Z,-0.2
2016-12-04T00:34:23.551Z,-0.3
2016-12-04T00:34:33.545Z,-0.2
2016-12-04T00:34:43.537Z,-0.2
2016-12-04T00:34:53.532Z,-0.3
2016-12-04T00:35:03.523Z,-0.2
2016-12-04T00:35:13.516Z,-0.4
2016-12-04T00:35:23.511Z,-0.3
2016-12-04T00:35:33.502Z,-0.3
2016-12-04T00:35:43.497Z,-0.3
2016-12-04T00:35:53.490Z,-0.3
2016-12-04T00:36:03.482Z,-0.3
2016-12-04T00:36:13.476Z,-0.4
2016-12-04T00:36:23.468Z,-0.2
2016-12-04T00:36:33.462Z,-0.4
2016-12-04T00:36:43.456Z,-0.3
2016-12-04T00:36:53.446Z,-0.2
2016-12-04T00:37:03.440Z,-0.3
2016-12-04T00:37:13.434Z,-0.3
2016-12-04T00:37:23.427Z,-0.2
2016-12-04T00:37:33.421Z,-0.2
2016-12-04T00:37:43.412Z,-0.3
2016-12-04T00:37:53.405Z,-0.3
2016-12-04T00:38:03.399Z,-0.3
2016-12-04T00:38:13.392Z,-0.3
2016-12-04T00:38:23.385Z,-0.3
2016-12-04T00:38:33.380Z,-0.3
2016-12-04T00:38:43.372Z,-0.3
2016-12-04T00:38:53.364Z,-0.4
2016-12-04T00:39:03.357Z,-0.3
2016-12-04T00:39:13.356Z,-0.3
2016-12-04T00:39:23.344Z,-0.3
2016-12-04T00:39:33.337Z,-0.3
2016-12-04T00:39:43.331Z,-0.4
2016-12-04T00:39:53.325Z,-0.3
2016-12-04T00:40:03.316Z,-0.3
2016-12-04T00:40:13.309Z,-0.3
2016-12-04T00:40:23.302Z,-0.4
2016-12-04T00:40:33.295Z,-0.5
2016-12-04T00:40:43.288Z,-0.4
2016-12-04T00:40:53.281Z,-0.4
2016-12-04T00:41:03.275Z,-0.5
2016-12-04T00:41:13.268Z,-0.4
2016-12-04T00:41:23.260Z,-0.4
2016-12-04T00:41:33.255Z,-0.4
2016-12-04T00:41:43.246Z,-0.5
2016-12-04T00:41:53.240Z,-0.3
2016-12-04T00:42:03.233Z,-0.4
2016-12-04T00:42:13.226Z,-0.4
2016-12-04T00:42:23.219Z,-0.4
2016-12-04T00:42:33.212Z,-0.4
2016-12-04T00:42:43.204Z,-0.4
2016-12-04T00:42:53.198Z,-0.4
2016-12-04T00:43:03.191Z,-0.5
2016-12-04T00:43:13.185Z,-0.5
2016-12-04T00:43:23.179Z,-0.4
2016-12-04T00:43:33.171Z,-0.5
2016-12-04T00:43:43.163Z,-0.5
2016-12-04T00:43:53.157Z,-0.5
2016-12-04T00:44:03.150Z,-0.5
2016-12-04T00:44:13.143Z,-0.5
2016-12-04T00:44:23.136Z,-0.5
2016-12-04T00:44:33.129Z,-0.5
2016-12-04T00:44:43.122Z,-0.6
2016-12-04T00:44:53.114Z,-0.5
2016-12-04T00:45:03.109Z,-0.5
2016-12-04T00:45:13.111Z,-0.6
2016-12-04T00:45:23.094Z,-0.5
2016-12-04T00:45:33.087Z,-0.5
2016-12-04T00:45:43.080Z,-0.6
2016-12-04T00:45:53.074Z,-0.5
2016-12-04T00:46:03.067Z,-0.5
2016-12-04T00:46:13.060Z,-0.5
2016-12-04T00:46:23.052Z,-0.5
2016-12-04T00:46:33.046Z,-0.4
2016-12-04T00:46:43.039Z,-0.5
2016-12-04T00:46:53.033Z,-0.5
2016-12-04T00:47:03.026Z,-0.5
2016-12-04T00:47:13.018Z,-0.4
2016-12-04T00:47:23.012Z,-0.5
2016-12-04T00:47:33.003Z,-0.5
2016-12-04T00:47:42.997Z,-0.4
2016-12-04T00:47:52.992Z,-0.5
2016-12-04T00:48:02.985Z,-0.4
2016-12-04T00:48:12.977Z,-0.4
2016-12-04T00:48:22.970Z,-0.5
2016-12-04T00:48:32.963Z,-0.6
2016-12-04T00:48:42.957Z,-0.5
2016-12-04T00:48:52.949Z,-0.4
2016-12-04T00:49:02.942Z,-0.6
2016-12-04T00:49:12.940Z,-0.5
2016-12-04T00:49:22.930Z,-0.5
2016-12-04T00:49:32.921Z,-0.6
2016-12-04T00:49:42.915Z,-0.5
2016-12-04T00:49:52.907Z,-0.5
2016-12-04T00:50:02.902Z,-0.5
2016-12-04T00:50:12.893Z,-0.4
2016-12-04T00:50:22.887Z,-0.5
2016-12-04T00:50:32.880Z,-0.5
2016-12-04T00:50:42.873Z,-0.5
2016-12-04T00:50:52.867Z,-0.5
2016-12-04T00:51:02.859Z,-0.5
2016-12-04T00:51:12.851Z,-0.5
2016-12-04T00:51:22.845Z,-0.4
2016-12-04T00:51:32.837Z,-0.4
2016-12-04T00:51:42.832Z,-0.5
2016-12-04T00:51:52.825Z,-0.4
2016-12-04T00:52:02.818Z,-0.5
2016-12-04T00:52:12.810Z,-0.6
2016-12-04T00:52:22.803Z,-0.5
2016-12-04T00:52:32.797Z,-0.6
2016-12-04T00:52:42.791Z,-0.6
2016-12-04T00:52:52.782Z,-0.6
2016-12-04T00:53:02.777Z,-0.5
2016-12-04T00:53:12.769Z,-0.6
2016-12-04T00:53:22.762Z,-0.6
2016-12-04T00:53:32.755Z,-0.5
2016-12-04T00:53:42.749Z,-0.5
2016-12-04T00:53:52.741Z,-0.5
2016-12-04T00:54:02.734Z,-0.5
2016-12-04T00:54:12.727Z,-0.5
2016-12-04T00:54:22.721Z,-0.5
2016-12-04T00:54:32.715Z,-0.5
2016-12-04T00:54:42.707Z,-0.5
2016-12-04T00:54:52.700Z,-0.5
2016-12-04T00:55:02.693Z,-0.5
2016-12-04T00:55:12.686Z,-0.5
2016-12-04T00:55:22.679Z,-0.5
2016-12-04T00:55:32.672Z,-0.4
2016-12-04T00:55:42.666Z,-0.4
2016-12-04T00:55:52.659Z,-0.4
2016-12-04T00:56:02.651Z,-0.5
2016-12-04T00:56:12.644Z,-0.5
2016-12-04T00:56:22.638Z,-0.5
2016-12-04T00:56:32.631Z,-0.5
2016-12-04T00:56:42.625Z,-0.5
2016-12-04T00:56:52.617Z,-0.5
2016-12-04T00:57:02.609Z,-0.5
2016-12-04T00:57:12.603Z,-0.5
2016-12-04T00:57:22.596Z,-0.6
2016-12-04T00:57:32.589Z,-0.5
2016-12-04T00:57:42.597Z,-0.6
2016-12-04T00:57:52.574Z,-0.5
2016-12-04T00:58:02.568Z,-0.5
2016-12-04T00:58:12.560Z,-0.5
2016-12-04T00:58:22.554Z,-0.5
2016-12-04T00:58:32.549Z,-0.5
2016-12-04T00:58:42.541Z,-0.5
2016-12-04T00:58:52.535Z,-0.5
2016-12-04T00:59:02.527Z,-0.5
2016-12-04T00:59:12.519Z,-0.5
2016-12-04T00:59:22.513Z,-0.5
2016-12-04T00:59:32.505Z,-0.5
2016-12-04T00:59:42.500Z,-0.4
2016-12-04T00:59:52.493Z,-0.5
2016-12-04T01:00:02.485Z,-0.5
2016-12-04T01:00:12.478Z,-0.5
2016-12-04T01:00:22.472Z,-0.5
2016-12-04T01:00:32.464Z,-0.6
2016-12-04T01:00:42.458Z,-0.5
2016-12-04T01:00:52.450Z,-0.5
2016-12-04T01:01:02.444Z,-0.5
2016-12-04T01:01:12.437Z,-0.5
2016-12-04T01:01:22.430Z,-0.6
2016-12-04T01:01:32.424Z,-0.5
2016-12-04T01:01:42.415Z,-0.5
2016-12-04T01:01:52.409Z,-0.5
2016-12-04T01:02:02.402Z,-0.5
2016-12-04T01:02:12.395Z,-0.5
2016-12-04T01:02:22.388Z,-0.5
2016-12-04T01:02:32.382Z,-0.5
2016-12-04T01:02:42.374Z,-0.5
2016-12-04T01:02:52.368Z,-0.6
2016-12-04T01:03:02.360Z,-0.5
2016-12-04T01:03:12.354Z,-0.4
2016-12-04T01:03:22.346Z,-0.5
2016-12-04T01:03:32.339Z,-0.5
2016-12-04T01:03:42.333Z,-0.6
2016-12-04T01:03:52.326Z,-0.5
2016-12-04T01:04:02.319Z,-0.6
2016-12-04T01:04:12.312Z,-0.5
2016-12-04T01:04:22.308Z,-0.5
2016-12-04T01:04:32.298Z,-0.5
2016-12-04T01:04:42.292Z,-0.5
2016-12-04T01:04:52.283Z,-0.5
2016-12-04T01:05:02.278Z,-0.5
2016-12-04T01:05:12.271Z,-0.5
2016-12-04T01:05:22.263Z,-0.4
2016-12-04T01:05:32.256Z,-0.5
2016-12-04T01:05:42.251Z,-0.6
2016-12-04T01:05:52.242Z,-0.5
2016-12-04T01:06:02.236Z,-0.5
2016-12-04T01:06:12.229Z,-0.6
2016-12-04T01:06:22.221Z,-0.5
2016-12-04T01:06:32.216Z,-0.5
2016-12-04T01:06:42.207Z,-0.5
2016-12-04T01:06:52.202Z,-0.5
2016-12-04T01:07:02.194Z,-0.5
2016-12-04T01:07:12.186Z,-0.6
2016-12-04T01:07:22.181Z,-0.6
2016-12-04T01:07:32.172Z,-0.6
2016-12-04T01:07:42.166Z,-0.6
2016-12-04T01:07:52.160Z,-0.5
2016-12-04T01:08:02.152Z,-0.5
2016-12-04T01:08:12.146Z,-0.5
2016-12-04T01:08:22.137Z,-0.5
2016-12-04T01:08:32.131Z,-0.5
2016-12-04T01:08:42.124Z,-0.6
2016-12-04T01:08:52.118Z,-0.6
2016-12-04T01:09:02.112Z,-0.5
2016-12-04T01:09:12.104Z,-0.5
2016-12-04T01:09:22.096Z,-0.4
2016-12-04T01:09:32.089Z,-0.5
2016-12-04T01:09:42.083Z,-0.4
2016-12-04T01:09:52.077Z,-0.5
2016-12-04T01:10:02.069Z,-0.5
2016-12-04T01:10:12.061Z,-0.5
2016-12-04T01:10:22.059Z,-0.4
2016-12-04T01:10:32.049Z,-0.5
2016-12-04T01:10:42.041Z,-0.5
2016-12-04T01:10:52.034Z,-0.5
2016-12-04T01:11:02.027Z,-0.5
2016-12-04T01:11:12.021Z,-0.5
2016-12-04T01:11:22.013Z,-0.4
2016-12-04T01:11:32.006Z,-0.5
2016-12-04T01:11:41.999Z,-0.6
2016-12-04T01:11:51.993Z,-0.6
2016-12-04T01:12:01.986Z,-0.5
2016-12-04T01:12:11.978Z,-0.5
2016-12-04T01:12:21.970Z,-0.5
2016-12-04T01:12:31.964Z,-0.5
2016-12-04T01:12:41.958Z,-0.4
2016-12-04T01:12:51.949Z,-0.4
2016-12-04T01:13:01.944Z,-0.5
2016-12-04T01:13:11.937Z,-0.5
2016-12-04T01:13:21.929Z,-0.5
2016-12-04T01:13:31.923Z,-0.5
2016-12-04T01:13:41.915Z,-0.6
2016-12-04T01:13:51.909Z,-0.6
2016-12-04T01:14:01.903Z,-0.5
2016-12-04T01:14:11.895Z,-0.5
2016-12-04T01:14:21.887Z,-0.5
2016-12-04T01:14:31.881Z,-0.6
2016-12-04T01:14:41.874Z,-0.6
2016-12-04T01:14:51.869Z,-0.6
2016-12-04T01:15:01.860Z,-0.6
2016-12-04T01:15:11.852Z,-0.5
2016-12-04T01:15:21.846Z,-0.5
2016-12-04T01:15:31.838Z,-0.6
2016-12-04T01:15:41.833Z,-0.6
2016-12-04T01:15:51.825Z,-0.5
2016-12-04T01:16:01.817Z,-0.5
2016-12-04T01:16:11.811Z,-0.5
2016-12-04T01:16:21.805Z,-0.6
2016-12-04T01:16:31.798Z,-0.6
2016-12-04T01:16:41.790Z,-0.4
2016-12-04T01:16:51.783Z,-0.5
2016-12-04T01:17:01.776Z,-0.5
2016-12-04T01:17:11.771Z,-0.4
2016-12-04T01:17:21.763Z,-0.5
2016-12-04T01:17:31.757Z,-0.6
2016-12-04T01:17:41.749Z,-0.5
2016-12-04T01:17:51.741Z,-0.5
2016-12-04T01:18:01.734Z,-0.5
2016-12-04T01:18:11.727Z,-0.5
2016-12-04T01:18:21.721Z,-0.5
2016-12-04T01:18:31.715Z,-0.5
2016-12-04T01:18:41.707Z,-0.5
2016-12-04T01:18:51.699Z,-0.6
2016-12-04T01:19:01.692Z,-0.5
2016-12-04T01:19:11.685Z,-0.5
2016-12-04T01:19:21.679Z,-0.6
2016-12-04T01:19:31.671Z,-0.5
2016-12-04T01:19:41.664Z,-0.5
2016-12-04T01:19:51.658Z,-0.5
2016-12-04T01:20:01.652Z,-0.5
2016-12-04T01:20:11.644Z,-0.5
2016-12-04T01:20:21.637Z,-0.6
2016-12-04T01:20:31.630Z,-0.5
2016-12-04T01:20:41.624Z,-0.5
2016-12-04T01:20:51.616Z,-0.5
2016-12-04T01:21:01.609Z,-0.5
2016-12-04T01:21:11.604Z,-0.5
2016-12-04T01:21:21.596Z,-0.5
2016-12-04T01:21:31.589Z,-0.6
2016-12-04T01:21:41.581Z,-0.5
2016-12-04T01:21:51.574Z,-0.6
2016-12-04T01:22:01.568Z,-0.7
2016-12-04T01:22:11.561Z,-0.6
2016-12-04T01:22:21.555Z,-0.5
2016-12-04T01:22:31.546Z,-0.6
2016-12-04T01:22:41.539Z,-0.6
2016-12-04T01:22:51.533Z,-0.6
2016-12-04T01:23:01.525Z,-0.6
2016-12-04T01:23:11.518Z,-0.5
2016-12-04T01:23:21.513Z,-0.5
2016-12-04T01:23:31.505Z,-0.6
2016-12-04T01:23:41.497Z,-0.6
2016-12-04T01:23:51.491Z,-0.5
2016-12-04T01:24:01.504Z,-0.5
2016-12-04T01:24:11.477Z,-0.5
2016-12-04T01:24:21.471Z,-0.6
2016-12-04T01:24:31.464Z,-0.6
2016-12-04T01:24:41.456Z,-0.5
2016-12-04T01:24:51.449Z,-0.5
2016-12-04T01:25:01.443Z,-0.5
2016-12-04T01:25:11.436Z,-0.5
2016-12-04T01:25:21.428Z,-0.6
2016-12-04T01:25:31.421Z,-0.5
2016-12-04T01:25:41.414Z,-0.5
2016-12-04T01:25:51.407Z,-0.5
2016-12-04T01:26:01.401Z,-0.5
2016-12-04T01:26:11.394Z,-0.6
2016-12-04T01:26:21.388Z,-0.5
2016-12-04T01:26:31.381Z,-0.5
2016-12-04T01:26:41.372Z,-0.6
2016-12-04T01:26:51.367Z,-0.6
2016-12-04T01:27:01.359Z,-0.8
2016-12-04T01:27:11.352Z,-0.6
2016-12-04T01:27:21.346Z,-0.6
2016-12-04T01:27:31.338Z,-0.7
2016-12-04T01:27:41.332Z,-0.6
2016-12-04T01:27:51.324Z,-0.7
2016-12-04T01:28:01.318Z,-0.6
2016-12-04T01:28:11.311Z,-0.7
2016-12-04T01:28:21.304Z,-0.6
2016-12-04T01:28:31.298Z,-0.6
2016-12-04T01:28:41.289Z,-0.7
2016-12-04T01:28:51.282Z,-0.7
2016-12-04T01:29:01.276Z,-0.7
2016-12-04T01:29:11.270Z,-0.6
2016-12-04T01:29:21.261Z,-0.6
2016-12-04T01:29:31.254Z,-0.6
2016-12-04T01:29:41.247Z,-0.6
2016-12-04T01:29:51.240Z,-0.6
2016-12-04T01:30:01.234Z,-0.6
2016-12-04T01:30:11.227Z,-0.7
2016-12-04T01:30:21.219Z,-0.7
2016-12-04T01:30:31.213Z,-0.6
2016-12-04T01:30:41.206Z,-0.7
2016-12-04T01:30:51.200Z,-0.7
2016-12-04T01:31:01.192Z,-0.6
2016-12-04T01:31:11.186Z,-0.7
2016-12-04T01:31:21.178Z,-0.6
2016-12-04T01:31:31.171Z,-0.6
2016-12-04T01:31:41.165Z,-0.6
2016-12-04T01:31:51.157Z,-0.7
2016-12-04T01:32:01.151Z,-0.7
2016-12-04T01:32:11.144Z,-0.6
2016-12-04T01:32:21.137Z,-0.7
2016-12-04T01:32:31.130Z,-0.7
2016-12-04T01:32:41.123Z,-0.7
2016-12-04T01:32:51.116Z,-0.7
2016-12-04T01:33:01.109Z,-0.6
2016-12-04T01:33:11.102Z,-0.6
2016-12-04T01:33:21.095Z,-0.6
2016-12-04T01:33:31.088Z,-0.6
2016-12-04T01:33:41.081Z,-0.7
2016-12-04T01:33:51.074Z,-0.7
2016-12-04T01:34:01.067Z,-0.6
2016-12-04T01:34:11.059Z,-0.7
2016-12-04T01:34:21.052Z,-0.7
2016-12-04T01:34:31.046Z,-0.7
2016-12-04T01:34:41.039Z,-0.6
2016-12-04T01:34:51.032Z,-0.7
2016-12-04T01:35:01.024Z,-0.7
2016-12-04T01:35:11.017Z,-0.6
2016-12-04T01:35:21.012Z,-0.7
2016-12-04T01:35:31.004Z,-0.7
2016-12-04T01:35:40.998Z,-0.7
2016-12-04T01:35:50.990Z,-0.7
2016-12-04T01:36:00.983Z,-0.7
2016-12-04T01:36:10.976Z,-0.8
2016-12-04T01:36:20.968Z,-0.8
2016-12-04T01:36:30.963Z,-0.8
2016-12-04T01:36:40.956Z,-0.8
2016-12-04T01:36:50.948Z,-0.7
2016-12-04T01:37:00.940Z,-0.6
2016-12-04T01:37:10.938Z,-0.7
2016-12-04T01:37:20.926Z,-0.7
2016-12-04T01:37:30.920Z,-0.7
2016-12-04T01:37:40.912Z,-0.7
2016-12-04T01:37:50.911Z,-0.8
2016-12-04T01:38:00.899Z,-0.8
2016-12-04T01:38:10.893Z,-0.6
2016-12-04T01:38:20.886Z,-0.7
2016-12-04T01:38:30.879Z,-0.7
2016-12-04T01:38:40.872Z,-0.7
2016-12-04T01:38:50.866Z,-0.7
2016-12-04T01:39:00.858Z,-0.6
2016-12-04T01:39:10.850Z,-0.5
2016-12-04T01:39:20.845Z,-0.6
2016-12-04T01:39:30.837Z,-0.7
2016-12-04T01:39:40.829Z,-0.6
2016-12-04T01:39:50.823Z,-0.6
2016-12-04T01:40:00.815Z,-0.7
2016-12-04T01:40:10.810Z,-0.7
2016-12-04T01:40:20.801Z,-0.7
2016-12-04T01:40:30.796Z,-0.7
2016-12-04T01:40:40.788Z,-0.7
2016-12-04T01:40:50.780Z,-0.7
2016-12-04T01:41:00.774Z,-0.6
2016-12-04T01:41:10.767Z,-0.8
2016-12-04T01:41:20.760Z,-0.7
2016-12-04T01:41:30.754Z,-0.6
2016-12-04T01:41:40.745Z,-0.7
2016-12-04T01:41:50.739Z,-0.7
2016-12-04T01:42:00.733Z,-0.6
2016-12-04T01:42:10.728Z,-0.6
2016-12-04T01:42:20.718Z,-0.6
2016-12-04T01:42:30.713Z,-0.6
2016-12-04T01:42:40.704Z,-0.6
2016-12-04T01:42:50.697Z,-0.6
2016-12-04T01:43:00.693Z,-0.5
2016-12-04T01:43:10.683Z,-0.5
2016-12-04T01:43:20.676Z,-0.6
2016-12-04T01:43:30.670Z,-0.6
2016-12-04T01:43:40.663Z,-0.6
2016-12-04T01:43:50.656Z,-0.6
2016-12-04T01:44:00.648Z,-0.6
2016-12-04T01:44:10.642Z,-0.7
2016-12-04T01:44:20.634Z,-0.7
2016-12-04T01:44:30.629Z,-0.6
2016-12-04T01:44:40.621Z,-0.7
2016-12-04T01:44:50.614Z,-0.7
2016-12-04T01:45:00.607Z,-0.7
2016-12-04T01:45:10.601Z,-0.7
2016-12-04T01:45:20.593Z,-0.6
2016-12-04T01:45:30.586Z,-0.7
2016-12-04T01:45:40.578Z,-0.8
2016-12-04T01:45:50.572Z,-0.8
2016-12-04T01:46:00.566Z,-0.8
2016-12-04T01:46:10.558Z,-0.8
2016-12-04T01:46:20.552Z,-0.7
2016-12-04T01:46:30.544Z,-0.7
2016-12-04T01:46:40.537Z,-0.7
2016-12-04T01:46:50.530Z,-0.7
2016-12-04T01:47:00.523Z,-0.7
2016-12-04T01:47:10.516Z,-0.7
2016-12-04T01:47:20.509Z,-0.7
2016-12-04T01:47:30.502Z,-0.8
2016-12-04T01:47:40.496Z,-0.7
2016-12-04T01:47:50.488Z,-0.7
2016-12-04T01:48:00.482Z,-0.7
2016-12-04T01:48:10.474Z,-0.8
2016-12-04T01:48:20.467Z,-0.6
2016-12-04T01:48:30.460Z,-0.7
2016-12-04T01:48:40.455Z,-0.6
2016-12-04T01:48:50.449Z,-0.7
2016-12-04T01:49:00.441Z,-0.7
2016-12-04T01:49:10.434Z,-0.7
2016-12-04T01:49:20.425Z,-0.7
2016-12-04T01:49:30.420Z,-0.7
2016-12-04T01:49:40.413Z,-0.8
2016-12-04T01:49:50.406Z,-0.8
2016-12-04T01:50:00.399Z,-0.8
2016-12-04T01:50:10.390Z,-0.8
2016-12-04T01:50:20.385Z,-0.8
2016-12-04T01:50:30.378Z,-0.8
2016-12-04T01:50:40.370Z,-0.7
2016-12-04T01:50:50.364Z,-0.8
2016-12-04T01:51:00.357Z,-0.8
2016-12-04T01:51:10.349Z,-0.7
2016-12-04T01:51:20.343Z,-0.6
2016-12-04T01:51:30.336Z,-0.7
2016-12-04T01:51:40.329Z,-0.8
2016-12-04T01:51:50.323Z,-0.8
2016-12-04T01:52:00.315Z,-0.7
2016-12-04T01:52:10.307Z,-0.7
2016-12-04T01:52:20.300Z,-0.8
2016-12-04T01:52:30.293Z,-0.8
2016-12-04T01:52:40.288Z,-0.7
2016-12-04T01:52:50.279Z,-0.7
2016-12-04T01:53:00.272Z,-0.7
2016-12-04T01:53:10.266Z,-0.7
2016-12-04T01:53:20.260Z,-0.7
2016-12-04T01:53:30.252Z,-0.7
2016-12-04T01:53:40.245Z,-0.7
2016-12-04T01:53:50.237Z,-0.7
2016-12-04T01:54:00.231Z,-0.7
2016-12-04T01:54:10.223Z,-0.7
2016-12-04T01:54:20.217Z,-0.7
2016-12-04T01:54:30.210Z,-0.7
2016-12-04T01:54:40.202Z,-0.6
2016-12-04T01:54:50.197Z,-0.7
2016-12-04T01:55:00.188Z,-0.7
2016-12-04T01:55:10.182Z,-0.7
2016-12-04T01:55:20.175Z,-0.7
2016-12-04T01:55:30.171Z,-0.6
2016-12-04T01:55:40.162Z,-0.7
2016-12-04T01:55:50.155Z,-0.7
2016-12-04T01:56:00.146Z,-0.7
2016-12-04T01:56:10.141Z,-0.7
2016-12-04T01:56:20.134Z,-0.7
2016-12-04T01:56:30.127Z,-0.6
2016-12-04T01:56:40.120Z,-0.7
2016-12-04T01:56:50.111Z,-0.7
2016-12-04T01:57:00.108Z,-0.7
2016-12-04T01:57:10.098Z,-0.7
2016-12-04T01:57:20.092Z,-0.7
2016-12-04T01:57:30.084Z,-0.6
2016-12-04T01:57:40.078Z,-0.6
2016-12-04T01:57:50.070Z,-0.7
2016-12-04T01:58:00.063Z,-0.8
2016-12-04T01:58:10.056Z,-0.8
2016-12-04T01:58:20.049Z,-0.7
2016-12-04T01:58:30.045Z,-0.7
2016-12-04T01:58:40.035Z,-0.7
2016-12-04T01:58:50.028Z,-0.7
2016-12-04T01:59:00.021Z,-0.6
2016-12-04T01:59:10.015Z,-0.6
2016-12-04T01:59:20.009Z,-0.6
2016-12-04T01:59:30.003Z,-0.6
2016-12-04T01:59:39.994Z,-0.7
2016-12-04T01:59:49.987Z,-0.8
2016-12-04T01:59:59.979Z,-0.7
2016-12-04T02:00:09.974Z,-0.7
2016-12-04T02:00:19.965Z,-0.7
2016-12-04T02:00:29.959Z,-0.6
2016-12-04T02:00:39.955Z,-0.7
2016-12-04T02:00:49.944Z,-0.6
2016-12-04T02:00:59.938Z,-0.6
2016-12-04T02:01:09.931Z,-0.7
2016-12-04T02:01:19.925Z,-0.7
2016-12-04T02:01:29.918Z,-0.7
2016-12-04T02:01:39.911Z,-0.7
2016-12-04T02:01:49.904Z,-0.7
2016-12-04T02:01:59.897Z,-0.8
2016-12-04T02:02:09.890Z,-0.6
2016-12-04T02:02:19.882Z,-0.7
2016-12-04T02:02:29.875Z,-0.8
2016-12-04T02:02:39.868Z,-0.7
2016-12-04T02:02:49.861Z,-0.7
2016-12-04T02:02:59.853Z,-0.7
2016-12-04T02:03:09.848Z,-0.8
2016-12-04T02:03:19.841Z,-0.7
2016-12-04T02:03:29.834Z,-0.8
2016-12-04T02:03:39.826Z,-0.8
2016-12-04T02:03:49.820Z,-0.7
2016-12-04T02:03:59.812Z,-0.8
2016-12-04T02:04:09.805Z,-0.8
2016-12-04T02:04:19.798Z,-0.8
2016-12-04T02:04:29.792Z,-0.7
2016-12-04T02:04:39.784Z,-0.8
2016-12-04T02:04:49.778Z,-0.8
2016-12-04T02:04:59.771Z,-0.7
2016-12-04T02:05:09.765Z,-0.8
2016-12-04T02:05:19.757Z,-0.8
2016-12-04T02:05:29.749Z,-0.8
2016-12-04T02:05:39.743Z,-0.8
2016-12-04T02:05:49.737Z,-0.8
2016-12-04T02:05:59.730Z,-0.8
2016-12-04T02:06:09.721Z,-0.8
2016-12-04T02:06:19.715Z,-0.7
2016-12-04T02:06:29.709Z,-0.7
2016-12-04T02:06:39.701Z,-0.8
2016-12-04T02:06:49.694Z,-0.8
2016-12-04T02:06:59.688Z,-0.8
2016-12-04T02:07:09.680Z,-0.8
2016-12-04T02:07:19.673Z,-0.7
2016-12-04T02:07:29.665Z,-0.7
2016-12-04T02:07:39.659Z,-0.8
2016-12-04T02:07:49.655Z,-0.8
2016-12-04T02:07:59.644Z,-0.7
2016-12-04T02:08:09.638Z,-0.7
2016-12-04T02:08:19.630Z,-0.8
2016-12-04T02:08:29.624Z,-0.8
2016-12-04T02:08:39.619Z,-0.7
2016-12-04T02:08:49.609Z,-0.8
2016-12-04T02:08:59.604Z,-0.7
2016-12-04T02:09:09.596Z,-0.7
2016-12-04T02:09:19.589Z,-0.8
2016-12-04T02:09:29.583Z,-0.7
2016-12-04T02:09:39.576Z,-0.8
2016-12-04T02:09:49.568Z,-0.8
2016-12-04T02:09:59.561Z,-0.7
2016-12-04T02:10:09.555Z,-0.6
2016-12-04T02:10:19.547Z,-0.6
2016-12-04T02:10:29.541Z,-0.8
2016-12-04T02:10:39.537Z,-0.8
2016-12-04T02:10:49.530Z,-0.7
2016-12-04T02:10:59.520Z,-0.8
2016-12-04T02:11:09.512Z,-0.8
2016-12-04T02:11:19.506Z,-0.8
2016-12-04T02:11:29.498Z,-0.7
2016-12-04T02:11:39.491Z,-0.6
2016-12-04T02:11:49.484Z,-0.8
2016-12-04T02:11:59.477Z,-0.7
2016-12-04T02:12:09.472Z,-0.7
2016-12-04T02:12:19.464Z,-0.8
2016-12-04T02:12:29.456Z,-0.7
2016-12-04T02:12:39.450Z,-0.6
2016-12-04T02:12:49.443Z,-0.7
2016-12-04T02:12:59.437Z,-0.8
2016-12-04T02:13:09.429Z,-0.8